Time,TemperatureF,DewpointF,PressureIn,WindDirection,WindDirectionDegrees,WindSpeedMPH,WindSpeedGustMPH,Humidity,HourlyPrecipIn,Conditions,Clouds,dailyrainin,SolarRadiationWatts/m^2,SoftwareType,DateUTC
2012-11-17 00:01:00,57.4,56.5,29.78,NNE,20,0.0,7.0,97,0.02,,,0.21,0.0,meteohub,2012-11-17 08:01:00,
2012-11-17 00:06:00,57.4,56.5,29.78,NNE,21,3.0,4.0,97,0.02,,,0.22,0.0,meteohub,2012-11-17 08:06:00,
2012-11-17 00:11:00,57.4,56.5,29.77,NNE,31,3.0,4.0,97,0.03,,,0.23,0.0,meteohub,2012-11-17 08:11:00,
2012-11-17 00:16:00,57.4,56.5,29.77,NE,40,4.0,6.0,97,0.03,,,0.23,0.0,meteohub,2012-11-17 08:16:00,
2012-11-17 00:21:00,57.4,56.5,29.77,NE,38,6.0,6.0,97,0.02,,,0.23,0.0,meteohub,2012-11-17 08:21:00,
2012-11-17 00:26:00,57.2,56.3,29.77,NNE,27,5.0,7.0,97,0.02,,,0.23,0.0,meteohub,2012-11-17 08:26:00,
2012-11-17 00:31:00,57.2,56.3,29.78,NE,44,0.0,7.0,97,0.02,,,0.23,0.0,meteohub,2012-11-17 08:31:00,
2012-11-17 00:36:00,57.2,56.3,29.78,NE,42,1.0,7.0,97,0.02,,,0.23,0.0,meteohub,2012-11-17 08:36:00,
2012-11-17 00:41:00,57.2,56.3,29.78,ENE,78,0.0,6.0,97,0.02,,,0.23,0.0,meteohub,2012-11-17 08:41:00,
2012-11-17 00:46:00,57.2,56.7,29.78,ENE,74,1.0,6.0,98,0.03,,,0.24,0.0,meteohub,2012-11-17 08:46:00,
2012-11-17 00:51:00,57.2,56.7,29.78,SE,128,3.0,6.0,98,0.03,,,0.24,0.0,meteohub,2012-11-17 08:51:00,
2012-11-17 00:56:00,57.2,56.7,29.78,ESE,114,2.0,6.0,98,0.03,,,0.24,0.0,meteohub,2012-11-17 08:56:00,
2012-11-17 01:01:00,57.0,56.5,29.77,East,101,1.0,6.0,98,0.03,,,0.24,0.0,meteohub,2012-11-17 09:01:00,
2012-11-17 01:06:00,57.0,56.5,29.77,SSE,154,0.0,5.0,98,0.02,,,0.24,0.0,meteohub,2012-11-17 09:06:00,
2012-11-17 01:11:00,57.0,56.5,29.77,SSE,152,0.0,5.0,98,0.01,,,0.24,0.0,meteohub,2012-11-17 09:11:00,
2012-11-17 01:16:00,57.0,56.5,29.77,ESE,123,0.0,5.0,98,0.01,,,0.24,0.0,meteohub,2012-11-17 09:16:00,
2012-11-17 01:21:00,57.0,56.5,29.77,ESE,102,4.0,5.0,98,0.01,,,0.24,0.0,meteohub,2012-11-17 09:21:00,
2012-11-17 01:26:00,57.0,56.5,29.78,SSE,155,0.0,5.0,98,0.02,,,0.25,0.0,meteohub,2012-11-17 09:26:00,
2012-11-17 01:31:00,57.0,56.5,29.78,East,95,5.0,7.0,98,0.02,,,0.25,0.0,meteohub,2012-11-17 09:31:00,
2012-11-17 01:36:00,56.8,56.3,29.77,SE,129,4.0,7.0,98,0.02,,,0.25,0.0,meteohub,2012-11-17 09:36:00,
2012-11-17 01:41:00,56.8,56.3,29.77,SSW,202,3.0,7.0,98,0.02,,,0.25,0.0,meteohub,2012-11-17 09:41:00,
2012-11-17 01:46:00,56.8,56.3,29.77,ESE,104,2.0,7.0,98,0.01,,,0.25,0.0,meteohub,2012-11-17 09:46:00,
2012-11-17 01:51:00,56.8,56.3,29.77,SE,146,4.0,12.0,98,0.02,,,0.26,0.0,meteohub,2012-11-17 09:51:00,
2012-11-17 01:56:00,56.8,56.3,29.77,ESE,106,1.0,12.0,98,0.02,,,0.26,0.0,meteohub,2012-11-17 09:56:00,
2012-11-17 02:02:00,56.8,56.3,29.77,SSE,150,2.0,12.0,98,0.02,,,0.26,0.0,meteohub,2012-11-17 10:02:00,
2012-11-17 02:07:00,56.8,56.3,29.76,SSE,166,4.0,10.0,98,0.02,,,0.26,0.0,meteohub,2012-11-17 10:07:00,
2012-11-17 02:12:00,56.8,56.3,29.76,SE,141,5.0,10.0,98,0.02,,,0.26,0.0,meteohub,2012-11-17 10:12:00,
2012-11-17 02:17:00,56.8,56.3,29.76,SSE,155,2.0,10.0,98,0.02,,,0.26,0.0,meteohub,2012-11-17 10:17:00,
2012-11-17 02:22:00,56.8,56.3,29.76,East,98,2.0,10.0,98,0.01,,,0.26,0.0,meteohub,2012-11-17 10:22:00,
2012-11-17 02:27:00,56.8,56.3,29.76,SE,140,9.0,10.0,98,0.01,,,0.26,0.0,meteohub,2012-11-17 10:27:00,
2012-11-17 02:32:00,56.8,56.3,29.76,ESE,115,3.0,12.0,98,0.01,,,0.26,0.0,meteohub,2012-11-17 10:32:00,
2012-11-17 02:37:00,57.0,56.5,29.76,SSE,160,1.0,12.0,98,0.01,,,0.26,0.0,meteohub,2012-11-17 10:37:00,
2012-11-17 02:42:00,56.8,56.3,29.76,SSE,157,10.0,13.0,98,0.01,,,0.26,0.0,meteohub,2012-11-17 10:42:00,
2012-11-17 02:47:00,57.0,56.5,29.75,SSE,153,2.0,16.0,98,0.01,,,0.26,0.0,meteohub,2012-11-17 10:47:00,
2012-11-17 02:52:00,57.0,56.5,29.75,SE,144,7.0,16.0,98,0.00,,,0.26,0.0,meteohub,2012-11-17 10:52:00,
2012-11-17 02:57:00,57.0,56.5,29.75,SSE,167,6.0,16.0,98,0.00,,,0.26,0.0,meteohub,2012-11-17 10:57:00,
2012-11-17 03:02:00,57.0,56.5,29.75,SSE,167,2.0,14.0,98,0.01,,,0.27,0.0,meteohub,2012-11-17 11:02:00,
2012-11-17 03:07:00,57.0,56.5,29.75,SSE,157,3.0,13.0,98,0.01,,,0.27,0.0,meteohub,2012-11-17 11:07:00,
2012-11-17 03:12:00,57.0,56.5,29.74,SSE,166,5.0,13.0,98,0.01,,,0.27,0.0,meteohub,2012-11-17 11:12:00,
2012-11-17 03:17:00,57.0,56.5,29.74,SE,144,7.0,17.0,98,0.01,,,0.27,0.0,meteohub,2012-11-17 11:17:00,
2012-11-17 03:22:00,57.0,56.5,29.74,SE,141,7.0,17.0,98,0.01,,,0.27,0.0,meteohub,2012-11-17 11:22:00,
2012-11-17 03:27:00,57.0,56.5,29.74,SSE,150,7.0,16.0,98,0.01,,,0.27,0.0,meteohub,2012-11-17 11:27:00,
2012-11-17 03:32:00,57.0,56.5,29.74,South,178,6.0,16.0,98,0.01,,,0.27,0.0,meteohub,2012-11-17 11:32:00,
2012-11-17 03:37:00,57.0,56.5,29.74,SE,143,19.0,19.0,98,0.02,,,0.28,0.0,meteohub,2012-11-17 11:37:00,
2012-11-17 03:42:00,57.0,56.5,29.74,South,181,12.0,21.0,98,0.02,,,0.28,0.0,meteohub,2012-11-17 11:42:00,
2012-11-17 03:47:00,57.0,56.5,29.74,South,175,9.0,21.0,98,0.02,,,0.28,0.0,meteohub,2012-11-17 11:47:00,
2012-11-17 03:52:00,57.0,56.5,29.73,SSE,157,6.0,21.0,98,0.02,,,0.28,0.0,meteohub,2012-11-17 11:52:00,
2012-11-17 03:57:00,57.0,56.5,29.73,SSE,155,5.0,21.0,98,0.02,,,0.28,0.0,meteohub,2012-11-17 11:57:00,
2012-11-17 04:02:00,56.8,56.3,29.74,SE,134,19.0,21.0,98,0.01,,,0.28,0.0,meteohub,2012-11-17 12:02:00,
2012-11-17 04:07:00,56.8,56.3,29.73,SE,145,6.0,20.0,98,0.01,,,0.28,0.0,meteohub,2012-11-17 12:07:00,
2012-11-17 04:12:00,56.8,56.3,29.73,ESE,118,14.0,20.0,98,0.02,,,0.29,0.0,meteohub,2012-11-17 12:12:00,
2012-11-17 04:17:00,56.8,56.3,29.73,SE,134,9.0,21.0,98,0.02,,,0.29,0.0,meteohub,2012-11-17 12:17:00,
2012-11-17 04:22:00,57.0,56.5,29.73,SE,136,12.0,21.0,98,0.02,,,0.29,0.0,meteohub,2012-11-17 12:22:00,
2012-11-17 04:27:00,57.0,56.5,29.73,SSE,160,7.0,21.0,98,0.02,,,0.29,0.0,meteohub,2012-11-17 12:27:00,
2012-11-17 04:32:00,57.0,56.5,29.73,SE,145,7.0,20.0,98,0.02,,,0.29,0.0,meteohub,2012-11-17 12:32:00,
2012-11-17 04:37:00,57.0,56.5,29.73,SSE,163,5.0,20.0,98,0.01,,,0.29,0.0,meteohub,2012-11-17 12:37:00,
2012-11-17 04:42:00,57.0,56.5,29.73,SSE,148,14.0,20.0,98,0.03,,,0.31,0.0,meteohub,2012-11-17 12:42:00,
2012-11-17 04:47:00,57.0,56.5,29.73,SSE,151,14.0,20.0,98,0.03,,,0.31,0.0,meteohub,2012-11-17 12:47:00,
2012-11-17 04:52:00,57.0,56.5,29.73,SSE,167,7.0,19.0,98,0.03,,,0.31,0.0,meteohub,2012-11-17 12:52:00,
2012-11-17 04:57:00,57.0,56.5,29.73,SSW,192,5.0,18.0,98,0.03,,,0.31,0.0,meteohub,2012-11-17 12:57:00,
2012-11-17 05:02:00,57.0,56.5,29.74,SSE,147,7.0,19.0,98,0.03,,,0.31,0.0,meteohub,2012-11-17 13:02:00,
2012-11-17 05:07:00,57.0,56.5,29.74,South,178,9.0,19.0,98,0.03,,,0.31,0.0,meteohub,2012-11-17 13:07:00,
2012-11-17 05:12:00,57.0,56.5,29.74,SE,145,9.0,15.0,98,0.03,,,0.32,0.0,meteohub,2012-11-17 13:12:00,
2012-11-17 05:17:00,57.0,56.5,29.74,South,172,5.0,15.0,98,0.03,,,0.32,0.0,meteohub,2012-11-17 13:17:00,
2012-11-17 05:22:00,57.0,56.5,29.74,SSE,155,5.0,15.0,98,0.03,,,0.32,0.0,meteohub,2012-11-17 13:22:00,
2012-11-17 05:27:00,57.2,56.7,29.74,South,184,4.0,12.0,98,0.03,,,0.32,0.0,meteohub,2012-11-17 13:27:00,
2012-11-17 05:32:00,57.2,56.7,29.75,SSE,157,7.0,18.0,98,0.03,,,0.32,0.0,meteohub,2012-11-17 13:32:00,
2012-11-17 05:37:00,57.4,57.0,29.75,SSE,153,3.0,18.0,99,0.02,,,0.32,0.0,meteohub,2012-11-17 13:37:00,
2012-11-17 05:42:00,57.6,57.2,29.75,South,178,7.0,18.0,99,0.01,,,0.32,0.0,meteohub,2012-11-17 13:42:00,
2012-11-17 05:47:00,57.6,57.0,29.75,SSE,161,7.0,13.0,98,0.01,,,0.32,0.0,meteohub,2012-11-17 13:47:00,
2012-11-17 05:52:00,57.7,57.2,29.75,South,176,7.0,13.0,98,0.01,,,0.32,0.0,meteohub,2012-11-17 13:52:00,
2012-11-17 05:57:00,57.9,57.6,29.75,SE,144,4.0,13.0,99,0.01,,,0.32,0.0,meteohub,2012-11-17 13:57:00,
2012-11-17 06:02:00,58.1,57.7,29.75,South,188,10.0,14.0,99,0.01,,,0.32,0.0,meteohub,2012-11-17 14:02:00,
2012-11-17 06:07:00,58.3,57.7,29.75,SSW,192,8.0,14.0,98,0.00,,,0.32,0.0,meteohub,2012-11-17 14:07:00,
2012-11-17 06:12:00,58.3,57.7,29.75,SSE,150,10.0,15.0,98,0.00,,,0.32,0.0,meteohub,2012-11-17 14:12:00,
2012-11-17 06:17:00,58.3,57.7,29.75,SSE,164,4.0,15.0,98,0.00,,,0.32,0.0,meteohub,2012-11-17 14:17:00,
2012-11-17 06:22:00,58.5,57.9,29.76,SSW,203,6.0,15.0,98,0.01,,,0.33,0.0,meteohub,2012-11-17 14:22:00,
2012-11-17 06:28:00,58.5,57.9,29.76,SW,215,6.0,13.0,98,0.01,,,0.33,0.0,meteohub,2012-11-17 14:28:00,
2012-11-17 06:33:00,58.5,57.9,29.76,SSW,205,8.0,13.0,98,0.01,,,0.33,0.0,meteohub,2012-11-17 14:33:00,
2012-11-17 06:38:00,58.5,57.9,29.76,South,188,6.0,11.0,98,0.02,,,0.34,0.0,meteohub,2012-11-17 14:38:00,
2012-11-17 06:43:00,58.3,57.7,29.76,South,173,5.0,12.0,98,0.03,,,0.35,0.0,meteohub,2012-11-17 14:43:00,
2012-11-17 06:48:00,58.5,57.9,29.76,SSW,200,17.0,17.0,98,0.03,,,0.35,0.0,meteohub,2012-11-17 14:48:00,
2012-11-17 06:53:00,58.5,57.9,29.77,SW,219,17.0,21.0,98,0.03,,,0.35,0.0,meteohub,2012-11-17 14:53:00,
2012-11-17 06:58:00,58.5,57.9,29.77,South,184,14.0,21.0,98,0.03,,,0.35,0.0,meteohub,2012-11-17 14:58:00,
2012-11-17 07:03:00,58.5,57.9,29.77,WSW,243,11.0,19.0,98,0.03,,,0.35,0.0,meteohub,2012-11-17 15:03:00,
2012-11-17 07:08:00,58.5,57.9,29.77,SSW,192,10.0,20.0,98,0.03,,,0.35,5.0,meteohub,2012-11-17 15:08:00,
2012-11-17 07:13:00,58.5,57.9,29.77,South,175,10.0,20.0,98,0.03,,,0.35,9.0,meteohub,2012-11-17 15:13:00,
2012-11-17 07:18:00,58.5,58.1,29.77,SSE,159,11.0,20.0,99,0.02,,,0.35,12.0,meteohub,2012-11-17 15:18:00,
2012-11-17 07:23:00,58.5,58.1,29.77,SW,216,18.0,19.0,99,0.02,,,0.35,14.0,meteohub,2012-11-17 15:23:00,
2012-11-17 07:28:00,58.6,58.3,29.78,SSW,200,10.0,21.0,99,0.02,,,0.35,25.0,meteohub,2012-11-17 15:28:00,
2012-11-17 07:33:00,58.6,58.3,29.78,South,190,17.0,21.0,99,0.02,,,0.35,19.0,meteohub,2012-11-17 15:33:00,
2012-11-17 07:38:00,58.6,58.3,29.78,SSW,205,16.0,21.0,99,0.01,,,0.35,28.0,meteohub,2012-11-17 15:38:00,
2012-11-17 07:43:00,58.6,58.3,29.78,SW,235,13.0,21.0,99,0.00,,,0.35,37.0,meteohub,2012-11-17 15:43:00,
2012-11-17 07:48:00,58.6,58.3,29.78,SSW,207,5.0,21.0,99,0.00,,,0.35,28.0,meteohub,2012-11-17 15:48:00,
2012-11-17 07:53:00,58.6,58.1,29.79,SW,217,10.0,21.0,98,0.01,,,0.36,23.0,meteohub,2012-11-17 15:53:00,
2012-11-17 07:58:00,58.6,58.1,29.79,SSW,203,12.0,19.0,98,0.01,,,0.36,28.0,meteohub,2012-11-17 15:58:00,
2012-11-17 08:03:00,58.5,58.1,29.79,South,178,12.0,16.0,99,0.02,,,0.37,26.0,meteohub,2012-11-17 16:03:00,
2012-11-17 08:08:00,58.5,57.9,29.79,SSW,194,12.0,17.0,98,0.03,,,0.38,23.0,meteohub,2012-11-17 16:08:00,
2012-11-17 08:13:00,58.5,58.1,29.79,WSW,248,9.0,22.0,99,0.04,,,0.39,26.0,meteohub,2012-11-17 16:13:00,
2012-11-17 08:18:00,58.5,58.1,29.79,SSW,196,4.0,22.0,99,0.04,,,0.39,26.0,meteohub,2012-11-17 16:18:00,
2012-11-17 08:23:00,58.5,57.9,29.80,SSW,196,6.0,22.0,98,0.05,,,0.40,30.0,meteohub,2012-11-17 16:23:00,
2012-11-17 08:28:00,58.5,57.9,29.80,SW,229,7.0,18.0,98,0.05,,,0.40,28.0,meteohub,2012-11-17 16:28:00,
2012-11-17 08:33:00,58.5,57.9,29.80,SW,222,10.0,18.0,98,0.05,,,0.40,42.0,meteohub,2012-11-17 16:33:00,
2012-11-17 08:38:00,58.5,57.9,29.81,SW,219,11.0,21.0,98,0.06,,,0.41,23.0,meteohub,2012-11-17 16:38:00,
2012-11-17 08:43:00,57.9,57.4,29.81,SSW,194,17.0,23.0,98,0.07,,,0.42,18.0,meteohub,2012-11-17 16:43:00,
2012-11-17 08:48:00,57.6,57.0,29.81,SW,227,10.0,23.0,98,0.06,,,0.42,30.0,meteohub,2012-11-17 16:48:00,
2012-11-17 08:53:00,57.4,56.8,29.81,SW,217,3.0,22.0,98,0.07,,,0.43,21.0,meteohub,2012-11-17 16:53:00,
2012-11-17 08:58:00,57.2,56.7,29.81,SSW,213,4.0,22.0,98,0.07,,,0.43,46.0,meteohub,2012-11-17 16:58:00,
2012-11-17 09:03:00,57.0,56.5,29.82,East,94,2.0,19.0,98,0.07,,,0.44,76.0,meteohub,2012-11-17 17:03:00,
2012-11-17 09:08:00,56.8,56.3,29.82,SW,229,4.0,14.0,98,0.05,,,0.44,104.0,meteohub,2012-11-17 17:08:00,
2012-11-17 09:13:00,57.0,56.7,29.82,West,276,4.0,10.0,99,0.06,,,0.45,76.0,meteohub,2012-11-17 17:13:00,
2012-11-17 09:18:00,56.8,56.5,29.82,SSW,201,7.0,10.0,99,0.06,,,0.45,83.0,meteohub,2012-11-17 17:18:00,
2012-11-17 09:23:00,56.7,56.1,29.83,West,273,0.0,11.0,98,0.05,,,0.45,90.0,meteohub,2012-11-17 17:23:00,
2012-11-17 09:28:00,56.7,56.3,29.83,WSW,253,0.0,11.0,99,0.05,,,0.45,102.0,meteohub,2012-11-17 17:28:00,
2012-11-17 09:33:00,56.7,56.3,29.83,SSW,208,0.0,11.0,99,0.04,,,0.45,95.0,meteohub,2012-11-17 17:33:00,
2012-11-17 09:38:00,56.7,56.3,29.83,WSW,252,4.0,7.0,99,0.03,,,0.45,97.0,meteohub,2012-11-17 17:38:00,
2012-11-17 09:43:00,56.5,56.1,29.83,SW,223,2.0,12.0,99,0.03,,,0.45,118.0,meteohub,2012-11-17 17:43:00,
2012-11-17 09:48:00,56.5,56.1,29.83,SW,225,3.0,12.0,99,0.03,,,0.45,113.0,meteohub,2012-11-17 17:48:00,
2012-11-17 09:53:00,56.7,56.3,29.83,SSW,204,2.0,13.0,99,0.02,,,0.45,190.0,meteohub,2012-11-17 17:53:00,
2012-11-17 09:58:00,56.7,56.3,29.83,South,188,0.0,13.0,99,0.02,,,0.45,195.0,meteohub,2012-11-17 17:58:00,
2012-11-17 10:03:00,56.8,56.5,29.84,SSW,204,2.0,13.0,99,0.01,,,0.45,243.0,meteohub,2012-11-17 18:03:00,
2012-11-17 10:08:00,57.0,56.7,29.84,WSW,245,5.0,12.0,99,0.01,,,0.45,253.0,meteohub,2012-11-17 18:08:00,
2012-11-17 10:13:00,57.0,56.7,29.84,WSW,257,2.0,12.0,99,0.00,,,0.45,239.0,meteohub,2012-11-17 18:13:00,
2012-11-17 10:18:00,57.2,56.8,29.84,SW,221,2.0,12.0,99,0.00,,,0.45,209.0,meteohub,2012-11-17 18:18:00,
2012-11-17 10:23:00,57.4,57.0,29.84,WSW,242,2.0,12.0,99,0.00,,,0.45,214.0,meteohub,2012-11-17 18:23:00,
2012-11-17 10:28:00,57.4,57.0,29.85,SW,226,6.0,12.0,99,0.00,,,0.45,209.0,meteohub,2012-11-17 18:28:00,
2012-11-17 10:33:00,57.4,57.0,29.85,SW,228,6.0,14.0,99,0.00,,,0.45,186.0,meteohub,2012-11-17 18:33:00,
2012-11-17 10:38:00,57.4,57.0,29.85,SSW,211,6.0,14.0,99,0.00,,,0.45,174.0,meteohub,2012-11-17 18:38:00,
2012-11-17 10:43:00,57.2,56.7,29.85,SW,223,7.0,15.0,98,0.00,,,0.45,130.0,meteohub,2012-11-17 18:43:00,
2012-11-17 10:48:00,57.4,57.0,29.85,SSW,207,3.0,15.0,99,0.00,,,0.45,171.0,meteohub,2012-11-17 18:48:00,
2012-11-17 10:53:00,57.4,56.8,29.85,WSW,256,10.0,15.0,98,0.00,,,0.45,114.0,meteohub,2012-11-17 18:53:00,
2012-11-17 10:58:00,57.4,56.8,29.85,SW,215,6.0,12.0,98,0.00,,,0.45,123.0,meteohub,2012-11-17 18:58:00,
2012-11-17 11:03:00,57.4,56.8,29.85,SW,231,8.0,12.0,98,0.00,,,0.45,107.0,meteohub,2012-11-17 19:03:00,
2012-11-17 11:08:00,57.4,56.8,29.85,SSW,208,4.0,14.0,98,0.00,,,0.45,111.0,meteohub,2012-11-17 19:08:00,
2012-11-17 11:13:00,57.4,56.8,29.85,SSW,212,5.0,14.0,98,0.00,,,0.45,141.0,meteohub,2012-11-17 19:13:00,
2012-11-17 11:18:00,57.4,56.8,29.85,SW,223,5.0,14.0,98,0.00,,,0.45,111.0,meteohub,2012-11-17 19:18:00,
2012-11-17 11:23:00,57.2,56.7,29.85,SSW,196,2.0,14.0,98,0.00,,,0.45,163.0,meteohub,2012-11-17 19:23:00,
2012-11-17 11:28:00,57.4,56.8,29.85,West,259,3.0,14.0,98,0.00,,,0.45,195.0,meteohub,2012-11-17 19:28:00,
2012-11-17 11:33:00,57.4,56.8,29.85,SSW,213,8.0,18.0,98,0.00,,,0.45,186.0,meteohub,2012-11-17 19:33:00,
2012-11-17 11:39:00,57.6,57.0,29.85,SW,214,6.0,18.0,98,0.00,,,0.45,174.0,meteohub,2012-11-17 19:39:00,
2012-11-17 11:44:00,57.4,56.8,29.85,WSW,238,6.0,18.0,98,0.00,,,0.45,146.0,meteohub,2012-11-17 19:44:00,
2012-11-17 11:49:00,57.4,56.8,29.85,SW,221,12.0,19.0,98,0.00,,,0.45,135.0,meteohub,2012-11-17 19:49:00,
2012-11-17 11:54:00,57.6,57.0,29.85,SW,224,3.0,19.0,98,0.00,,,0.45,186.0,meteohub,2012-11-17 19:54:00,
2012-11-17 11:59:00,57.6,57.0,29.85,WSW,254,4.0,19.0,98,0.00,,,0.45,146.0,meteohub,2012-11-17 19:59:00,
2012-11-17 12:04:00,57.6,57.0,29.85,SW,225,4.0,16.0,98,0.00,,,0.45,183.0,meteohub,2012-11-17 20:04:00,
2012-11-17 12:09:00,57.7,57.2,29.85,SW,217,5.0,16.0,98,0.00,,,0.45,195.0,meteohub,2012-11-17 20:09:00,
2012-11-17 12:14:00,57.7,57.2,29.85,SW,236,7.0,16.0,98,0.00,,,0.45,265.0,meteohub,2012-11-17 20:14:00,
2012-11-17 12:19:00,57.9,57.4,29.85,SW,216,11.0,19.0,98,0.00,,,0.45,352.0,meteohub,2012-11-17 20:19:00,
2012-11-17 12:24:00,58.1,57.6,29.85,SW,215,13.0,19.0,98,0.00,,,0.45,167.0,meteohub,2012-11-17 20:24:00,
2012-11-17 12:29:00,58.1,57.6,29.85,SSW,204,5.0,19.0,98,0.00,,,0.45,213.0,meteohub,2012-11-17 20:29:00,
2012-11-17 12:34:00,58.5,57.9,29.85,SSW,206,4.0,17.0,98,0.00,,,0.45,330.0,meteohub,2012-11-17 20:34:00,
2012-11-17 12:39:00,58.5,57.9,29.85,SW,223,7.0,17.0,98,0.00,,,0.45,311.0,meteohub,2012-11-17 20:39:00,
2012-11-17 12:44:00,58.5,57.6,29.85,SSW,213,12.0,19.0,97,0.00,,,0.45,229.0,meteohub,2012-11-17 20:44:00,
2012-11-17 12:49:00,58.6,57.7,29.85,SSW,193,3.0,19.0,97,0.00,,,0.45,450.0,meteohub,2012-11-17 20:49:00,
2012-11-17 12:54:00,59.4,58.5,29.85,SW,221,7.0,19.0,97,0.00,,,0.45,434.0,meteohub,2012-11-17 20:54:00,
2012-11-17 12:59:00,59.5,58.5,29.85,SW,217,8.0,16.0,96,0.00,,,0.45,288.0,meteohub,2012-11-17 20:59:00,
2012-11-17 13:04:00,59.4,57.9,29.85,SW,217,9.0,19.0,95,0.00,,,0.45,255.0,meteohub,2012-11-17 21:04:00,
2012-11-17 13:09:00,59.2,57.7,29.85,SSE,150,3.0,19.0,95,0.00,,,0.45,332.0,meteohub,2012-11-17 21:09:00,
2012-11-17 13:14:00,59.0,57.6,29.85,SW,219,15.0,19.0,95,0.00,,,0.45,218.0,meteohub,2012-11-17 21:14:00,
2012-11-17 13:19:00,58.8,57.4,29.86,SW,219,13.0,21.0,95,0.00,,,0.45,229.0,meteohub,2012-11-17 21:19:00,
2012-11-17 13:24:00,58.8,57.4,29.86,West,263,5.0,21.0,95,0.00,,,0.45,195.0,meteohub,2012-11-17 21:24:00,
2012-11-17 13:29:00,58.8,57.0,29.86,West,280,7.0,21.0,94,0.00,,,0.45,223.0,meteohub,2012-11-17 21:29:00,
2012-11-17 13:34:00,58.5,56.7,29.85,SW,231,5.0,17.0,94,0.00,,,0.45,323.0,meteohub,2012-11-17 21:34:00,
2012-11-17 13:39:00,58.8,57.0,29.85,SW,219,3.0,19.0,94,0.00,,,0.45,469.0,meteohub,2012-11-17 21:39:00,
2012-11-17 13:44:00,58.6,56.7,29.85,SW,215,10.0,19.0,93,0.00,,,0.45,257.0,meteohub,2012-11-17 21:44:00,
2012-11-17 13:49:00,58.6,56.7,29.85,SW,214,10.0,19.0,93,0.00,,,0.45,257.0,meteohub,2012-11-17 21:49:00,
2012-11-17 13:54:00,58.8,56.8,29.85,SSW,206,7.0,19.0,93,0.00,,,0.45,483.0,meteohub,2012-11-17 21:54:00,
2012-11-17 13:59:00,59.2,56.8,29.85,SW,217,5.0,21.0,92,0.00,,,0.45,490.0,meteohub,2012-11-17 21:59:00,
2012-11-17 14:04:00,59.4,56.7,29.85,SW,219,4.0,21.0,91,0.00,,,0.45,466.0,meteohub,2012-11-17 22:04:00,
2012-11-17 14:09:00,58.8,55.9,29.85,West,263,3.0,21.0,90,0.00,,,0.45,162.0,meteohub,2012-11-17 22:09:00,
2012-11-17 14:14:00,58.5,55.6,29.85,West,261,13.0,18.0,90,0.00,,,0.45,139.0,meteohub,2012-11-17 22:14:00,
2012-11-17 14:19:00,58.6,55.9,29.86,SW,226,3.0,22.0,91,0.00,,,0.45,171.0,meteohub,2012-11-17 22:19:00,
2012-11-17 14:24:00,58.3,55.6,29.86,SW,232,13.0,22.0,91,0.00,,,0.45,167.0,meteohub,2012-11-17 22:24:00,
2012-11-17 14:29:00,58.3,55.6,29.86,SW,220,12.0,22.0,91,0.00,,,0.45,214.0,meteohub,2012-11-17 22:29:00,
2012-11-17 14:34:00,58.3,55.6,29.86,WSW,242,2.0,20.0,91,0.00,,,0.45,135.0,meteohub,2012-11-17 22:34:00,
2012-11-17 14:39:00,57.9,55.2,29.86,SSW,213,13.0,20.0,91,0.00,,,0.45,105.0,meteohub,2012-11-17 22:39:00,
2012-11-17 14:44:00,57.7,55.2,29.86,WSW,238,7.0,19.0,91,0.00,,,0.45,113.0,meteohub,2012-11-17 22:44:00,
2012-11-17 14:49:00,57.7,55.2,29.86,SW,215,4.0,19.0,91,0.00,,,0.45,109.0,meteohub,2012-11-17 22:49:00,
2012-11-17 14:54:00,57.9,55.2,29.86,SW,233,10.0,19.0,91,0.00,,,0.45,111.0,meteohub,2012-11-17 22:54:00,
2012-11-17 14:59:00,57.9,55.2,29.86,SW,229,4.0,19.0,91,0.00,,,0.45,62.0,meteohub,2012-11-17 22:59:00,
2012-11-17 15:05:00,57.9,55.2,29.86,South,186,4.0,16.0,91,0.00,,,0.45,40.0,meteohub,2012-11-17 23:05:00,
2012-11-17 15:10:00,57.7,55.2,29.86,SSW,204,10.0,16.0,91,0.00,,,0.45,35.0,meteohub,2012-11-17 23:10:00,
2012-11-17 15:15:00,57.6,55.0,29.86,SSW,202,7.0,14.0,91,0.00,,,0.45,56.0,meteohub,2012-11-17 23:15:00,
2012-11-17 15:20:00,57.6,55.2,29.86,SW,221,5.0,14.0,92,0.00,,,0.45,54.0,meteohub,2012-11-17 23:20:00,
2012-11-17 15:25:00,57.6,55.2,29.86,SSW,200,7.0,14.0,92,0.00,,,0.45,42.0,meteohub,2012-11-17 23:25:00,
2012-11-17 15:30:00,57.6,55.2,29.86,SW,221,14.0,16.0,92,0.00,,,0.45,49.0,meteohub,2012-11-17 23:30:00,
2012-11-17 15:35:00,57.6,55.2,29.86,WSW,247,9.0,16.0,92,0.00,,,0.45,53.0,meteohub,2012-11-17 23:35:00,
2012-11-17 15:40:00,57.6,55.0,29.85,South,177,5.0,16.0,91,0.00,,,0.45,58.0,meteohub,2012-11-17 23:40:00,
2012-11-17 15:45:00,57.7,55.2,29.85,SSW,211,10.0,15.0,91,0.00,,,0.45,53.0,meteohub,2012-11-17 23:45:00,
2012-11-17 15:50:00,57.9,55.0,29.85,SSW,199,8.0,15.0,90,0.00,,,0.45,47.0,meteohub,2012-11-17 23:50:00,
2012-11-17 15:55:00,58.1,55.2,29.85,SSW,211,7.0,15.0,90,0.00,,,0.45,37.0,meteohub,2012-11-17 23:55:00,
2012-11-17 16:00:00,58.1,55.2,29.85,SSE,159,10.0,17.0,90,0.00,,,0.45,32.0,meteohub,2012-11-18 00:00:00,
2012-11-17 16:05:00,58.3,55.0,29.85,WSW,238,12.0,17.0,89,0.00,,,0.00,39.0,meteohub,2012-11-18 00:05:00,
2012-11-17 16:10:00,58.3,55.0,29.85,South,178,7.0,19.0,89,0.00,,,0.00,42.0,meteohub,2012-11-18 00:10:00,
2012-11-17 16:15:00,58.5,55.2,29.85,SSW,209,15.0,21.0,89,0.00,,,0.00,32.0,meteohub,2012-11-18 00:15:00,
2012-11-17 16:20:00,58.5,55.2,29.85,South,182,10.0,21.0,89,0.00,,,0.00,26.0,meteohub,2012-11-18 00:20:00,
2012-11-17 16:25:00,58.5,55.2,29.84,South,169,9.0,21.0,89,0.00,,,0.00,18.0,meteohub,2012-11-18 00:25:00,
2012-11-17 16:30:00,58.5,55.2,29.84,SE,125,9.0,20.0,89,0.00,,,0.00,11.0,meteohub,2012-11-18 00:30:00,
2012-11-17 16:35:00,58.5,55.2,29.84,South,186,21.0,21.0,89,0.00,,,0.00,12.0,meteohub,2012-11-18 00:35:00,
2012-11-17 16:40:00,58.5,54.9,29.84,South,180,18.0,21.0,88,0.00,,,0.00,11.0,meteohub,2012-11-18 00:40:00,
2012-11-17 16:45:00,58.5,54.9,29.84,SSE,168,8.0,21.0,88,0.00,,,0.00,5.0,meteohub,2012-11-18 00:45:00,
2012-11-17 16:50:00,58.5,54.9,29.84,SSW,206,16.0,21.0,88,0.00,,,0.00,0.0,meteohub,2012-11-18 00:50:00,
2012-11-17 16:55:00,58.5,54.9,29.84,SW,225,14.0,22.0,88,0.00,,,0.00,0.0,meteohub,2012-11-18 00:55:00,
2012-11-17 17:00:00,58.5,54.9,29.84,South,186,7.0,22.0,88,0.00,,,0.00,0.0,meteohub,2012-11-18 01:00:00,
2012-11-17 17:05:00,58.5,54.9,29.84,SSW,192,7.0,22.0,88,0.00,,,0.00,0.0,meteohub,2012-11-18 01:05:00,
2012-11-17 17:10:00,58.5,54.7,29.84,SSW,207,14.0,20.0,87,0.00,,,0.00,0.0,meteohub,2012-11-18 01:10:00,
2012-11-17 17:15:00,58.5,54.7,29.84,SSE,153,7.0,17.0,87,0.00,,,0.00,0.0,meteohub,2012-11-18 01:15:00,
2012-11-17 17:20:00,58.5,54.7,29.84,South,188,6.0,19.0,87,0.00,,,0.00,0.0,meteohub,2012-11-18 01:20:00,
2012-11-17 17:25:00,58.5,54.9,29.84,SSW,194,19.0,19.0,88,0.00,,,0.00,0.0,meteohub,2012-11-18 01:25:00,
2012-11-17 17:30:00,58.5,54.9,29.84,SSW,194,18.0,24.0,88,0.00,,,0.00,0.0,meteohub,2012-11-18 01:30:00,
2012-11-17 17:35:00,58.5,54.9,29.84,South,187,13.0,24.0,88,0.00,,,0.00,0.0,meteohub,2012-11-18 01:35:00,
2012-11-17 17:40:00,58.5,54.9,29.84,South,188,11.0,24.0,88,0.00,,,0.00,0.0,meteohub,2012-11-18 01:40:00,
2012-11-17 17:45:00,58.5,54.9,29.84,SSW,198,16.0,23.0,88,0.00,,,0.00,0.0,meteohub,2012-11-18 01:45:00,
2012-11-17 17:50:00,58.3,55.4,29.84,South,189,10.0,21.0,90,0.00,,,0.00,0.0,meteohub,2012-11-18 01:50:00,
2012-11-17 17:55:00,58.1,55.2,29.85,South,190,16.0,27.0,90,0.00,,,0.00,0.0,meteohub,2012-11-18 01:55:00,
2012-11-17 18:00:00,58.1,55.2,29.84,South,190,11.0,27.0,90,0.00,,,0.00,0.0,meteohub,2012-11-18 02:00:00,
2012-11-17 18:05:00,58.3,55.4,29.85,SSE,150,16.0,27.0,90,0.00,,,0.00,0.0,meteohub,2012-11-18 02:05:00,
2012-11-17 18:10:00,58.3,55.4,29.85,SW,232,15.0,25.0,90,0.00,,,0.00,0.0,meteohub,2012-11-18 02:10:00,
2012-11-17 18:15:00,58.3,55.4,29.85,SSW,196,13.0,25.0,90,0.00,,,0.00,0.0,meteohub,2012-11-18 02:15:00,
2012-11-17 18:20:00,58.5,55.6,29.85,SSW,202,15.0,27.0,90,0.00,,,0.00,0.0,meteohub,2012-11-18 02:20:00,
2012-11-17 18:25:00,58.5,55.6,29.85,SSE,148,14.0,27.0,90,0.00,,,0.00,0.0,meteohub,2012-11-18 02:25:00,
2012-11-17 18:30:00,58.5,55.6,29.85,SW,230,13.0,22.0,90,0.00,,,0.00,0.0,meteohub,2012-11-18 02:30:00,
2012-11-17 18:35:00,58.5,55.6,29.85,SSE,157,9.0,23.0,90,0.00,,,0.00,0.0,meteohub,2012-11-18 02:35:00,
2012-11-17 18:40:00,58.5,55.6,29.85,SSW,201,7.0,23.0,90,0.00,,,0.00,0.0,meteohub,2012-11-18 02:40:00,
2012-11-17 18:45:00,58.5,55.6,29.85,SSW,192,6.0,23.0,90,0.00,,,0.00,0.0,meteohub,2012-11-18 02:45:00,
2012-11-17 18:51:00,58.5,55.6,29.85,SSW,200,15.0,23.0,90,0.00,,,0.00,0.0,meteohub,2012-11-18 02:51:00,
2012-11-17 18:55:00,58.6,55.4,29.85,South,186,11.0,25.0,89,0.00,,,0.00,0.0,meteohub,2012-11-18 02:55:00,
2012-11-17 19:01:00,58.6,55.4,29.85,South,190,9.0,26.0,89,0.00,,,0.00,0.0,meteohub,2012-11-18 03:01:00,
2012-11-17 19:06:00,58.8,55.6,29.85,SSW,194,16.0,26.0,89,0.00,,,0.00,0.0,meteohub,2012-11-18 03:06:00,
2012-11-17 19:11:00,58.8,55.6,29.85,SSE,157,12.0,27.0,89,0.00,,,0.00,0.0,meteohub,2012-11-18 03:11:00,
2012-11-17 19:16:00,58.8,55.6,29.85,West,261,22.0,27.0,89,0.00,,,0.00,0.0,meteohub,2012-11-18 03:16:00,
2012-11-17 19:21:00,58.8,55.6,29.85,South,182,11.0,27.0,89,0.00,,,0.00,0.0,meteohub,2012-11-18 03:21:00,
2012-11-17 19:26:00,58.6,55.8,29.86,SSW,209,20.0,26.0,90,0.00,,,0.00,0.0,meteohub,2012-11-18 03:26:00,
2012-11-17 19:31:00,58.3,55.6,29.86,SE,130,11.0,30.0,91,0.01,,,0.01,0.0,meteohub,2012-11-18 03:31:00,
2012-11-17 19:36:00,57.9,55.6,29.86,SSE,159,15.0,30.0,92,0.02,,,0.02,0.0,meteohub,2012-11-18 03:36:00,
2012-11-17 19:41:00,57.7,55.8,29.86,South,171,10.0,29.0,93,0.04,,,0.04,0.0,meteohub,2012-11-18 03:41:00,
2012-11-17 19:46:00,57.4,55.4,29.86,South,173,18.0,29.0,93,0.08,,,0.08,0.0,meteohub,2012-11-18 03:46:00,
2012-11-17 19:51:00,57.2,55.4,29.86,SW,223,11.0,29.0,94,0.11,,,0.11,0.0,meteohub,2012-11-18 03:51:00,
2012-11-17 19:56:00,57.0,55.2,29.86,WSW,249,10.0,27.0,94,0.12,,,0.12,0.0,meteohub,2012-11-18 03:56:00,
2012-11-17 20:01:00,57.0,55.6,29.86,SSW,196,19.0,22.0,95,0.12,,,0.12,0.0,meteohub,2012-11-18 04:01:00,
2012-11-17 20:06:00,57.2,55.8,29.87,WSW,249,12.0,23.0,95,0.13,,,0.13,0.0,meteohub,2012-11-18 04:06:00,
2012-11-17 20:11:00,57.4,55.9,29.87,SW,219,11.0,23.0,95,0.13,,,0.13,0.0,meteohub,2012-11-18 04:11:00,
2012-11-17 20:16:00,57.4,55.9,29.87,SSE,163,9.0,23.0,95,0.13,,,0.13,0.0,meteohub,2012-11-18 04:16:00,
2012-11-17 20:21:00,57.4,55.9,29.87,SSW,194,12.0,23.0,95,0.13,,,0.13,0.0,meteohub,2012-11-18 04:21:00,
2012-11-17 20:26:00,57.6,56.1,29.87,SSW,205,9.0,25.0,95,0.13,,,0.13,0.0,meteohub,2012-11-18 04:26:00,
2012-11-17 20:31:00,57.6,56.1,29.87,SSW,200,16.0,25.0,95,0.13,,,0.14,0.0,meteohub,2012-11-18 04:31:00,
2012-11-17 20:36:00,57.6,56.1,29.87,West,280,9.0,25.0,95,0.13,,,0.15,0.0,meteohub,2012-11-18 04:36:00,
2012-11-17 20:41:00,56.5,54.9,29.88,WNW,296,14.0,18.0,94,0.10,,,0.16,0.0,meteohub,2012-11-18 04:41:00,
2012-11-17 20:46:00,55.6,54.0,29.88,WNW,303,4.0,18.0,94,0.10,,,0.19,0.0,meteohub,2012-11-18 04:46:00,
2012-11-17 20:51:00,55.0,53.6,29.88,West,266,3.0,16.0,95,0.14,,,0.25,0.0,meteohub,2012-11-18 04:51:00,
2012-11-17 20:56:00,54.9,53.4,29.88,West,271,9.0,15.0,95,0.13,,,0.25,0.0,meteohub,2012-11-18 04:56:00,
2012-11-17 21:00:00,54.7,53.2,29.89,West,268,2.0,13.0,95,0.14,,,0.26,0.0,meteohub,2012-11-18 05:00:00,
2012-11-17 21:05:00,54.5,53.1,29.89,West,281,3.0,12.0,95,0.13,,,0.26,0.0,meteohub,2012-11-18 05:05:00,
2012-11-17 21:10:00,54.3,52.9,29.89,WSW,257,7.0,12.0,95,0.14,,,0.27,0.0,meteohub,2012-11-18 05:10:00,
2012-11-17 21:15:00,54.1,53.1,29.89,West,268,3.0,12.0,96,0.14,,,0.27,0.0,meteohub,2012-11-18 05:15:00,
2012-11-17 21:20:00,54.0,52.9,29.89,West,279,2.0,12.0,96,0.14,,,0.27,0.0,meteohub,2012-11-18 05:20:00,
2012-11-17 21:25:00,54.0,52.9,29.89,WSW,250,0.0,8.0,96,0.14,,,0.27,0.0,meteohub,2012-11-18 05:25:00,
2012-11-17 21:30:00,54.0,52.9,29.89,WSW,250,0.0,6.0,96,0.13,,,0.27,0.0,meteohub,2012-11-18 05:30:00,
2012-11-17 21:35:00,53.8,52.7,29.89,West,271,1.0,5.0,96,0.12,,,0.27,0.0,meteohub,2012-11-18 05:35:00,
2012-11-17 21:40:00,54.0,52.9,29.89,West,271,0.0,5.0,96,0.10,,,0.27,0.0,meteohub,2012-11-18 05:40:00,
2012-11-17 21:45:00,53.8,52.3,29.89,SW,234,1.0,9.0,95,0.07,,,0.27,0.0,meteohub,2012-11-18 05:45:00,
2012-11-17 21:50:00,53.8,52.3,29.90,SW,234,0.0,9.0,95,0.02,,,0.27,0.0,meteohub,2012-11-18 05:50:00,
2012-11-17 21:55:00,53.8,52.3,29.90,SW,236,1.0,9.0,95,0.01,,,0.27,0.0,meteohub,2012-11-18 05:55:00,
2012-11-17 22:00:00,53.8,52.3,29.90,SW,236,0.0,4.0,95,0.01,,,0.27,0.0,meteohub,2012-11-18 06:00:00,
2012-11-17 22:05:00,53.6,52.2,29.91,SW,236,2.0,4.0,95,0.01,,,0.27,0.0,meteohub,2012-11-18 06:05:00,
2012-11-17 22:10:00,53.6,52.5,29.91,WSW,246,2.0,4.0,96,0.00,,,0.27,0.0,meteohub,2012-11-18 06:10:00,
2012-11-17 22:15:00,53.4,52.3,29.91,SW,236,3.0,7.0,96,0.01,,,0.28,0.0,meteohub,2012-11-18 06:15:00,
2012-11-17 22:20:00,53.1,51.6,29.91,WSW,254,1.0,10.0,95,0.01,,,0.28,0.0,meteohub,2012-11-18 06:20:00,
2012-11-17 22:26:00,53.1,52.0,29.91,SW,220,0.0,10.0,96,0.01,,,0.28,0.0,meteohub,2012-11-18 06:26:00,
2012-11-17 22:31:00,53.1,52.0,29.91,SW,217,3.0,10.0,96,0.01,,,0.28,0.0,meteohub,2012-11-18 06:31:00,
2012-11-17 22:36:00,53.2,52.2,29.91,SSW,208,0.0,7.0,96,0.01,,,0.28,0.0,meteohub,2012-11-18 06:36:00,
2012-11-17 22:41:00,53.1,52.2,29.91,West,274,3.0,7.0,97,0.01,,,0.28,0.0,meteohub,2012-11-18 06:41:00,
2012-11-17 22:46:00,53.1,52.0,29.91,SW,222,2.0,6.0,96,0.01,,,0.28,0.0,meteohub,2012-11-18 06:46:00,
2012-11-17 22:51:00,52.9,51.8,29.91,West,268,2.0,6.0,96,0.01,,,0.28,0.0,meteohub,2012-11-18 06:51:00,
2012-11-17 22:56:00,52.9,52.0,29.91,WNW,286,1.0,6.0,97,0.01,,,0.28,0.0,meteohub,2012-11-18 06:56:00,
2012-11-17 23:01:00,52.9,51.8,29.91,West,265,4.0,6.0,96,0.01,,,0.28,0.0,meteohub,2012-11-18 07:01:00,
2012-11-17 23:06:00,52.9,51.8,29.91,WSW,257,3.0,6.0,96,0.01,,,0.28,0.0,meteohub,2012-11-18 07:06:00,
2012-11-17 23:11:00,52.9,52.0,29.92,West,261,4.0,9.0,97,0.00,,,0.28,0.0,meteohub,2012-11-18 07:11:00,
2012-11-17 23:16:00,52.9,52.0,29.92,West,264,4.0,9.0,97,0.00,,,0.28,0.0,meteohub,2012-11-18 07:16:00,
2012-11-17 23:21:00,53.1,52.2,29.92,West,266,5.0,9.0,97,0.00,,,0.28,0.0,meteohub,2012-11-18 07:21:00,
2012-11-17 23:26:00,53.1,52.2,29.92,WSW,254,3.0,7.0,97,0.00,,,0.28,0.0,meteohub,2012-11-18 07:26:00,
2012-11-17 23:31:00,53.1,52.2,29.93,West,269,2.0,7.0,97,0.00,,,0.28,0.0,meteohub,2012-11-18 07:31:00,
2012-11-17 23:36:00,53.1,52.0,29.93,West,262,0.0,7.0,96,0.00,,,0.28,0.0,meteohub,2012-11-18 07:36:00,
2012-11-17 23:41:00,52.9,51.8,29.93,West,262,5.0,8.0,96,0.00,,,0.28,0.0,meteohub,2012-11-18 07:41:00,
2012-11-17 23:46:00,52.9,51.8,29.93,WSW,239,2.0,9.0,96,0.00,,,0.28,0.0,meteohub,2012-11-18 07:46:00,
2012-11-17 23:51:00,52.9,51.8,29.93,West,264,3.0,11.0,96,0.00,,,0.28,0.0,meteohub,2012-11-18 07:51:00,
2012-11-17 23:56:00,52.9,51.8,29.94,WNW,292,5.0,11.0,96,0.00,,,0.28,0.0,meteohub,2012-11-18 07:56:00,